Latest Weather Observations for Lucinda

IDQ60801

Issued at 5:32 pm EST Wednesday 27 July 2016 (issued every 30 minutes, with the page automatically refreshed every 10 minutes)

About weather observations | Map of weather stations | Latest weather observations for QLD | Other Formats
Station Details ID: 032141 Name: LUCINDA POINT Lat: -18.52 Lon: 146.39 Height: 10.0 m
Data from the previous 72 hours. | See also: Recent months at Lucinda
Date/Time
EST
Temp
°C
App
Temp
°C
Dew
Point
°C
Rel
Hum
%
Delta-T
°C
Wind Press
QNH
hPa
Press
MSL
hPa
Rain since
9am
mm
Dir  Spd
km/h
Gust
km/h
Spd
kts
Gust
kts
27/05:30pm 23.8 25.8 19.1 75 3.0 SE 7 15 4 8 1016.3 1016.3 0.0
27/05:00pm 23.9 26.0 19.4 76 2.9 ESE 7 13 4 7 1016.0 1016.0 0.0
27/04:30pm 23.7 24.7 19.4 77 2.8 E 13 17 7 9 1015.9 1015.9 0.0
27/04:00pm 23.7 24.5 19.0 75 3.0 ESE 13 17 7 9 1015.6 1015.6 0.0
27/03:30pm 23.6 24.7 18.9 75 3.0 E 11 15 6 8 1015.6 1015.6 0.0
27/03:00pm 24.0 25.6 19.1 74 3.1 E 9 13 5 7 1015.7 1015.7 0.0
27/02:30pm 23.5 24.4 19.2 77 2.7 SE 13 15 7 8 1015.8 1015.8 0.0
27/02:00pm 23.0 23.8 19.0 78 2.5 SSE 13 17 7 9 1016.1 1016.1 0.0
27/01:30pm 23.3 24.1 19.0 77 2.7 S 13 17 7 9 1016.4 1016.4 0.0
27/01:00pm 22.9 22.4 19.1 79 2.4 S 20 22 11 12 1016.6 1016.6 0.0
27/12:30pm 22.8 22.4 19.0 79 2.4 S 19 22 10 12 1016.8 1016.8 0.0
27/12:00pm 23.1 23.9 19.1 78 2.5 S 13 17 7 9 1017.0 1017.0 0.0
27/11:30am 23.0 23.0 19.0 78 2.5 S 17 20 9 11 1017.4 1017.4 0.0
27/11:00am 23.0 23.1 19.2 79 2.4 SSE 17 22 9 12 1018.0 1018.0 0.0
27/10:30am 22.9 22.6 19.1 79 2.4 S 19 26 10 14 1018.2 1018.2 0.0
27/10:00am 22.9 21.9 18.9 78 2.5 SSE 22 28 12 15 1018.3 1018.3 0.0
27/09:30am 22.5 20.6 19.3 82 2.0 SSE 28 39 15 21 1018.4 1018.4 0.0
27/09:00am 22.3 20.7 19.3 83 1.9 SSE 26 39 14 21 1018.1 1018.1 0.0
27/08:30am 22.5 20.7 19.5 83 1.9 S 28 39 15 21 1017.7 1017.7 0.0
27/08:00am 22.8 21.5 19.8 83 1.9 S 26 33 14 18 1017.5 1017.5 0.0
27/07:30am 22.9 22.5 20.2 85 1.7 S 22 35 12 19 1017.1 1017.1 0.0
27/07:00am 22.7 21.7 20.4 87 1.5 S 26 35 14 19 1016.9 1016.9 0.0
27/06:30am 21.8 22.3 20.1 90 1.1 SW 17 19 9 10 1016.7 1016.7 0.0
27/06:00am 21.3 21.2 19.6 90 1.1 SW 19 22 10 12 1016.4 1016.4 0.0
27/05:30am 23.0 24.4 20.3 85 1.7 S 13 22 7 12 1016.0 1016.0 0.0
27/05:00am 21.3 22.1 19.8 91 1.0 SW 15 19 8 10 1016.0 1016.0 0.0
27/04:30am 21.1 21.4 19.7 92 0.9 SW 17 20 9 11 1015.9 1015.9 0.0
27/04:00am 21.3 22.1 19.9 92 0.9 SW 15 17 8 9 1015.7 1015.7 0.0
27/03:30am 21.2 21.0 19.3 89 1.2 SW 19 24 10 13 1015.8 1015.8 0.0
27/03:00am 21.6 22.4 19.9 90 1.1 SSW 15 19 8 10 1015.9 1015.9 0.0
27/02:30am 21.5 22.0 20.0 91 1.0 SW 17 19 9 10 1016.1 1016.1 0.0
27/02:00am 21.6 22.0 19.9 90 1.1 SW 17 19 9 10 1016.3 1016.3 0.0
27/01:30am 21.5 21.9 19.8 90 1.1 SW 17 20 9 11 1016.4 1016.4 0.0
27/01:00am 21.7 22.3 20.2 91 1.0 SW 17 20 9 11 1016.5 1016.5 0.0
27/12:30am 21.9 23.6 20.2 90 1.1 SW 11 15 6 8 1016.6 1016.6 0.0
27/12:00am 22.1 23.7 20.0 88 1.3 SW 11 11 6 6 1016.7 1016.7 0.0
 
Date/Time
EST
Temp
°C
App
Temp
°C
Dew
Point
°C
Rel
Hum
%
Delta-T
°C
Wind Press
QNH
hPa
Press
MSL
hPa
Rain since
9am
mm
Dir  Spd
km/h
Gust
km/h
Spd
kts
Gust
kts
26/11:30pm 22.1 24.2 20.2 89 1.2 WSW 9 13 5 7 1016.9 1016.9 0.0
26/11:00pm 22.1 24.1 20.0 88 1.3 WSW 9 11 5 6 1017.0 1017.0 0.0
26/10:30pm 23.1 25.9 20.4 85 1.8 SSW 6 11 3 6 1016.8 1016.8 0.0
26/10:00pm 23.0 24.7 20.1 84 1.9 SE 11 19 6 10 1016.7 1016.7 0.0
26/09:30pm 23.2 25.3 20.2 83 1.9 S 9 15 5 8 1016.5 1016.5 0.0
26/09:00pm 23.2 25.0 20.3 84 1.9 SE 11 20 6 11 1016.5 1016.5 0.0
26/08:30pm 23.1 25.2 20.1 83 1.9 S 9 13 5 7 1016.3 1016.3 0.0
26/08:00pm 23.2 25.9 20.2 83 1.9 S 6 9 3 5 1016.1 1016.1 0.0
26/07:30pm 23.2 25.0 19.6 80 2.3 SSE 9 13 5 7 1015.8 1015.8 0.0
26/07:00pm 23.2 25.1 19.8 81 2.2 SE 9 13 5 7 1015.4 1015.4 0.0
26/06:30pm 23.2 25.5 19.8 81 2.2 ESE 7 11 4 6 1015.2 1015.2 0.0
26/06:00pm 23.4 25.7 19.8 80 2.3 S 7 11 4 6 1014.9 1014.9 0.0
26/05:30pm 23.5 25.7 19.6 79 2.5 S 7 11 4 6 1014.6 1014.6 0.0
26/05:00pm 23.5 23.4 19.6 79 2.5 S 19 22 10 12 1014.4 1014.4 0.0
26/04:30pm 23.5 23.4 19.6 79 2.5 S 19 22 10 12 1014.2 1014.2 0.0
26/04:00pm 23.7 24.2 20.0 80 2.4 S 17 20 9 11 1014.1 1014.1 0.0
26/03:30pm 23.3 23.3 19.7 80 2.3 S 19 24 10 13 1014.2 1014.2 0.0
26/03:00pm 23.5 24.2 19.6 79 2.5 S 15 20 8 11 1014.4 1014.4 0.0
26/02:30pm 23.3 23.7 19.0 77 2.7 S 15 20 8 11 1014.6 1014.6 0.0
26/02:00pm 23.3 22.8 19.0 77 2.7 S 20 22 11 12 1014.8 1014.8 0.0
26/01:30pm 23.0 22.5 18.7 77 2.7 S 19 22 10 12 1015.0 1015.0 0.0
26/01:00pm 22.9 21.9 18.9 78 2.5 S 22 26 12 14 1015.3 1015.3 0.0
26/12:30pm 22.7 21.6 18.7 78 2.5 S 22 26 12 14 1015.8 1015.8 0.0
26/12:00pm 22.8 21.7 19.4 81 2.2 S 24 28 13 15 1016.3 1016.3 0.0
26/11:30am 22.5 21.1 19.7 84 1.8 S 26 32 14 17 1016.6 1016.6 0.0
26/11:00am 22.7 21.5 20.0 85 1.7 S 26 30 14 16 1017.0 1017.0 0.0
26/10:30am 22.6 21.8 20.1 86 1.6 S 24 28 13 15 1017.1 1017.1 0.0
26/10:00am 22.8 22.3 20.0 84 1.8 S 22 28 12 15 1017.1 1017.1 0.0
26/09:30am 21.6 22.5 19.2 86 1.5 SSW 13 17 7 9 1017.3 1017.3 0.0
26/09:00am 20.9 21.2 18.7 87 1.4 SW 15 17 8 9 1017.1 1017.1 0.0
26/08:30am 19.9 19.6 18.2 90 1.1 SW 17 19 9 10 1016.9 1016.9 0.0
26/08:00am 19.9 19.5 18.0 89 1.2 SW 17 19 9 10 1016.8 1016.8 0.0
26/07:30am 19.8 19.3 17.9 89 1.2 SW 17 17 9 9 1016.5 1016.5 0.0
26/07:00am 19.8 19.5 18.3 91 0.9 SW 17 19 9 10 1016.2 1016.2 0.0
26/06:30am 19.9 19.9 18.0 89 1.2 WSW 15 17 8 9 1015.9 1015.9 0.0
26/06:00am 19.8 19.7 17.9 89 1.2 WSW 15 17 8 9 1015.6 1015.6 0.0
26/05:30am 20.0 20.3 17.8 87 1.4 WSW 13 15 7 8 1015.4 1015.4 0.0
26/05:00am 20.2 20.1 17.8 86 1.5 WSW 15 17 8 9 1015.3 1015.3 0.0
26/04:30am 20.3 19.8 17.7 85 1.6 SW 17 19 9 10 1015.2 1015.2 0.0
26/04:00am 20.2 19.7 17.8 86 1.5 WSW 17 17 9 9 1015.2 1015.2 0.0
26/03:30am 20.3 19.7 17.5 84 1.7 WSW 17 17 9 9 1015.5 1015.5 0.0
26/03:00am 20.4 19.7 17.4 83 1.8 SW 17 19 9 10 1015.6 1015.6 0.0
26/02:30am 21.0 20.3 17.4 80 2.2 SW 17 19 9 10 1015.7 1015.7 0.0
26/02:00am 21.1 20.5 17.5 80 2.2 SW 17 19 9 10 1016.0 1016.0 0.0
26/01:30am 20.9 20.3 17.5 81 2.1 SW 17 20 9 11 1016.2 1016.2 0.0
26/01:00am 20.7 20.4 17.3 81 2.1 WSW 15 17 8 9 1016.4 1016.4 0.0
26/12:30am 21.0 20.7 17.4 80 2.2 WSW 15 17 8 9 1016.7 1016.7 0.0
26/12:00am 21.4 21.4 18.0 81 2.1 SW 15 17 8 9 1016.8 1016.8 0.0
 
Date/Time
EST
Temp
°C
App
Temp
°C
Dew
Point
°C
Rel
Hum
%
Delta-T
°C
Wind Press
QNH
hPa
Press
MSL
hPa
Rain since
9am
mm
Dir  Spd
km/h
Gust
km/h
Spd
kts
Gust
kts
25/11:30pm 21.8 22.6 19.0 84 1.8 SW 13 15 7 8 1016.8 1016.8 0.0
25/11:00pm 21.8 22.3 19.2 85 1.6 SW 15 17 8 9 1016.6 1016.6 0.0
25/10:30pm 22.2 23.0 19.0 82 2.0 SSW 13 17 7 9 1016.7 1016.7 0.0
25/10:00pm 23.4 25.4 19.1 77 2.7 SSE 7 11 4 6 1016.5 1016.5 0.0
25/09:30pm 23.3 25.5 19.5 79 2.4 S 7 11 4 6 1016.4 1016.4 0.0
25/09:00pm 23.3 25.8 19.9 81 2.2 SE 6 9 3 5 1016.4 1016.4 0.0
25/08:30pm 23.4 25.7 19.5 79 2.5 SE 6 11 3 6 1016.2 1016.2 0.0
25/08:00pm 23.4 26.0 20.0 81 2.2 SSE 6 9 3 5 1015.9 1015.9 0.0
25/07:30pm 23.4 25.6 19.3 78 2.6 ESE 6 9 3 5 1015.5 1015.5 0.0
25/07:00pm 23.6 24.6 18.7 74 3.1 E 11 13 6 7 1015.0 1015.0 0.0
25/06:30pm 23.5 24.2 17.9 71 3.5 ENE 11 17 6 9 1014.7 1014.7 0.0
25/06:00pm 23.7 24.3 17.7 69 3.7 E 11 15 6 8 1014.5 1014.5 0.0
25/05:30pm 24.7 25.2 17.4 64 4.5 E 11 15 6 8 1014.4 1014.4 0.0
25/05:00pm 24.5 24.4 16.0 59 5.2 ENE 11 15 6 8 1014.2 1014.2 0.0
25/04:30pm 24.4 24.8 16.4 61 4.9 NNE 9 11 5 6 1014.1 1014.1 0.0
25/04:00pm 25.6 26.2 15.9 55 5.9 N 7 11 4 6 1014.0 1014.0 0.0
25/03:30pm 26.5 27.3 15.8 51 6.5 NNW 6 7 3 4 1014.0 1014.0 0.0
25/03:00pm 25.5 26.3 15.8 55 5.9 N 6 9 3 5 1014.3 1014.3 0.0
25/02:30pm 24.8 26.1 15.1 54 5.8 SE 2 6 1 3 1014.6 1014.6 0.0
25/02:00pm 24.4 24.2 14.8 55 5.7 S 9 9 5 5 1015.0 1015.0 0.0
25/01:30pm 24.3 23.6 14.4 54 5.9 S 11 13 6 7 1015.2 1015.2 0.0
25/01:00pm 24.1 23.5 14.5 55 5.7 S 11 15 6 8 1015.7 1015.7 0.0
25/12:30pm 23.8 23.3 15.8 61 4.8 S 13 19 7 10 1016.2 1016.2 0.0
25/12:00pm 23.7 22.9 16.2 63 4.6 S 15 19 8 10 1016.6 1016.6 0.0
25/11:30am 22.9 22.9 18.2 75 2.9 SSW 15 20 8 11 1016.9 1016.9 0.0
25/11:00am 23.1 23.6 18.4 75 3.0 SSW 13 15 7 8 1017.2 1017.2 0.0
25/10:30am 22.9 23.4 18.4 76 2.8 SSW 13 17 7 9 1017.5 1017.5 0.0
25/10:00am 22.7 23.4 18.9 79 2.4 SSW 13 17 7 9 1017.6 1017.6 0.0
25/09:30am 22.2 22.9 18.8 81 2.1 SW 13 17 7 9 1017.6 1017.6 0.0
25/09:00am 21.8 22.4 18.6 82 2.0 WSW 13 15 7 8 1017.4 1017.4 0.0
25/08:30am 21.4 21.2 18.6 84 1.8 SW 17 19 9 10 1017.1 1017.1 0.0
25/08:00am 21.5 22.4 18.5 83 1.9 SW 11 13 6 7 1016.9 1016.9 0.0
25/07:30am 20.9 22.0 18.8 88 1.3 WSW 11 13 6 7 1016.5 1016.5 0.0
25/07:00am 20.0 21.2 18.3 90 1.1 W 9 11 5 6 1016.4 1016.4 0.0
25/06:30am 20.0 20.4 18.1 89 1.2 WSW 13 15 7 8 1016.2 1016.2 0.0
25/06:00am 19.9 19.6 18.2 90 1.1 SSW 17 20 9 11 1015.8 1015.8 0.0
25/05:30am 20.2 19.8 19.0 93 0.8 SSW 19 22 10 12 1015.4 1015.4 0.0
25/05:00am 20.3 21.8 19.0 92 0.8 SW 9 11 5 6 1014.7 1014.7 0.0
25/04:30am 20.5 21.6 18.8 90 1.1 SW 11 11 6 6 1014.6 1014.6 0.0
25/04:00am 20.7 21.8 18.8 89 1.2 WSW 11 13 6 7 1014.5 1014.5 0.0
25/03:30am 20.8 21.4 18.7 88 1.3 WSW 13 13 7 7 1014.6 1014.6 0.0
25/03:00am 20.7 21.4 18.8 89 1.2 SW 13 15 7 8 1014.8 1014.8 0.0
25/02:30am 21.1 22.1 19.4 90 1.1 SW 13 15 7 8 1014.8 1014.8 0.0
25/02:00am 21.0 21.2 19.3 90 1.1 SW 17 17 9 9 1015.1 1015.1 0.0
25/01:30am 21.1 21.2 19.2 89 1.2 SW 17 19 9 10 1015.2 1015.2 0.0
25/01:00am 21.2 22.6 19.5 90 1.1 SW 11 13 6 7 1015.2 1015.2 0.0
25/12:30am 21.0 22.4 19.5 91 1.0 WSW 11 13 6 7 1015.3 1015.3 0.0
25/12:00am 21.2 22.3 19.7 91 1.0 WSW 13 17 7 9 1015.4 1015.4 0.0
 
Date/Time
EST
Temp
°C
App
Temp
°C
Dew
Point
°C
Rel
Hum
%
Delta-T
°C
Wind Press
QNH
hPa
Press
MSL
hPa
Rain since
9am
mm
Dir  Spd
km/h
Gust
km/h
Spd
kts
Gust
kts
24/11:30pm 21.9 24.0 20.2 90 1.1 WSW 9 11 5 6 1015.5 1015.5 0.0
24/11:00pm 22.1 24.7 20.4 90 1.1 W 7 9 4 5 1015.6 1015.6 0.0
24/10:30pm 22.7 25.5 20.4 87 1.5 WNW 6 7 3 4 1015.6 1015.6 0.0
24/10:00pm 22.9 25.5 20.4 86 1.6 W 7 7 4 4 1015.6 1015.6 0.0
24/09:30pm 23.6 26.0 20.1 81 2.3 NNW 7 7 4 4 1015.5 1015.5 0.0
24/09:00pm 23.3 25.7 20.1 82 2.1 NE 7 9 4 5 1015.3 1015.3 0.0
24/08:30pm 23.4 25.9 20.2 82 2.1 NE 7 9 4 5 1015.2 1015.2 0.0
24/08:00pm 23.6 25.5 19.7 79 2.5 NE 9 9 5 5 1014.8 1014.8 0.0
24/07:30pm 23.6 25.7 19.3 77 2.7 ENE 7 9 4 5 1014.6 1014.6 0.0
24/07:00pm 23.6 25.8 19.5 78 2.6 E 7 11 4 6 1014.5 1014.5 0.0
24/06:30pm 23.8 25.7 19.7 78 2.6 ENE 9 11 5 6 1014.2 1014.2 0.0
24/06:00pm 23.9 25.1 19.8 78 2.6 ENE 13 15 7 8 1014.0 1014.0 0.0

Other Formats:

Comma delimited format used in spreadsheet applications
http://www.bom.gov.au/fwo/IDQ60801/IDQ60801.94295.axf

JavaScript Object Notation format (JSON) in row-major order
http://www.bom.gov.au/fwo/IDQ60801/IDQ60801.94295.json